• Join FlightAware (Why Join?)
  • Login
  • US Flag 
10:39PM EDT


 

Airport Tracker/Info


-or-


 

Live Flight TrackerFlight Track Log ✈ SWA2130 ✈ 02-May-2013 ✈ KLAX - KELP

Flight Track Log - Related Links

Times and Time Zones

All times are in EDT time to prevent confusion due to time zone crossing. See the SWA2130 flight status page for this flight to view local times or setup timezone preferences in your user account.

Time Position Orientation Groundspeed Altitude Reporting Facility
EDT Latitude Longitude Course Direction KTS MPH feet Rate Location/Type
08:50PM 33.9447 -118.4539 210° Southwest 159 183 1,700  Level Los Angeles Center
08:51PM 33.8933 -118.4903 210° Southwest 239 275 3,700 2,220 Climbing Los Angeles Center
08:52PM 33.8256 -118.4978 185° South 270 311 6,300 3,420 Climbing Los Angeles Center
08:53PM 33.7306 -118.5142 188° South 292 336 10,800 3,480 Climbing Los Angeles Center
08:54PM 33.6778 -118.4336 128° Southeast 332 382 13,500 2,700 Climbing Los Angeles Center
08:55PM 33.6736 -118.3172 92° East 362 417 16,500 2,820 Climbing Los Angeles Center
08:56PM 33.6708 -118.1689 91° East 379 436 19,400 2,880 Climbing Los Angeles Center
08:57PM 33.6583 -118.0411 97° East 386 444 22,500 2,700 Climbing Los Angeles Center
08:59PM 33.6472 -117.9089 96° East 396 456 25,100 2,400 Climbing Los Angeles Center
09:00PM 33.6350 -117.7700 96° East 414 476 27,500 2,100 Climbing Los Angeles Center
09:01PM 33.6217 -117.6247 96° East 432 497 29,500 1,680 Climbing Los Angeles Center
09:02PM 33.6083 -117.4733 96° East 450 518 31,100 1,920 Climbing Los Angeles Center
09:03PM 33.5900 -117.2858 97° East 470 541 33,500 2,100 Climbing Los Angeles Center
09:04PM 33.5764 -117.1397 96° East 468 539 35,500 1,500 Climbing Los Angeles Center
09:05PM 33.5589 -116.9847 98° East 468 539 36,700 1,320 Climbing Los Angeles Center
09:06PM 33.5442 -116.8258 96° East 476 548 38,300 1,680 Climbing Los Angeles Center
09:07PM 33.5253 -116.6386 97° East 471 542 40,200 1,140 Climbing Los Angeles Center
09:08PM 33.5067 -116.4525 97° East 468 539 41,000 300 Climbing Los Angeles Center
09:09PM 33.4900 -116.2967 97° East 471 542 41,000  Level Los Angeles Center
09:10PM 33.4742 -116.1397 97° East 475 547 41,000  Level Los Angeles Center
09:11PM 33.4581 -115.9842 97° East 472 543 41,000  Level Los Angeles Center
09:12PM 33.4406 -115.8292 98° East 471 542 41,000  Level Los Angeles Center
09:13PM 33.4253 -115.6742 97° East 468 539 41,000  Level Los Angeles Center
09:14PM 33.4078 -115.5178 98° East 472 543 41,000  Level Los Angeles Center
09:15PM 33.3850 -115.3311 98° East 474 545 41,000  Level Los Angeles Center
09:16PM 33.3672 -115.1753 98° East 473 544 41,000  Level Los Angeles Center
09:17PM 33.3497 -115.0200 98° East 471 542 41,000  Level Los Angeles Center
09:18PM 33.3317 -114.8633 98° East 477 549 41,000  Level Los Angeles Center
09:19PM 33.3153 -114.7083 97° East 472 543 41,000  Level Los Angeles Center
09:20PM 33.2969 -114.5533 98° East 471 542 41,000  Level Los Angeles Center
09:21PM 33.2919 -114.4994 96° East 469 540 41,000  Level Albuquerque Center
09:22PM 33.2739 -114.3453 98° East 468 539 41,000  Level Albuquerque Center
09:23PM 33.2564 -114.1903 98° East 470 541 41,000  Level Albuquerque Center
09:24PM 33.2369 -114.0381 99° East 466 536 41,000  Level Albuquerque Center
09:25PM 33.2178 -113.8842 98° East 467 537 41,000  Level Albuquerque Center
09:26PM 33.1947 -113.7008 98° East 466 536 41,000  Level Albuquerque Center
09:27PM 33.1750 -113.5483 99° East 464 534 41,000  Level Albuquerque Center
09:28PM 33.1550 -113.3950 99° East 465 535 41,000  Level Albuquerque Center
09:29PM 33.1356 -113.2411 99° East 467 537 41,000  Level Albuquerque Center
09:30PM 33.1167 -113.0850 98° East 471 542 41,000  Level Albuquerque Center
09:31PM 33.0961 -112.9308 99° East 470 541 41,000  Level Albuquerque Center
09:32PM 33.0753 -112.7767 99° East 469 540 41,000  Level Albuquerque Center
09:33PM 33.0544 -112.6217 99° East 471 542 41,000  Level Albuquerque Center
09:34PM 33.0342 -112.4669 99° East 471 542 41,000  Level Albuquerque Center
09:35PM 33.0128 -112.3103 99° East 477 549 41,000  Level Albuquerque Center
09:36PM 32.9886 -112.1342 99° East 477 549 41,000  Level Albuquerque Center
09:37PM 32.9672 -111.9800 99° East 475 547 41,000  Level Albuquerque Center
09:38PM 32.9456 -111.8261 99° East 474 545 41,000  Level Albuquerque Center
09:39PM 32.9253 -111.6725 99° East 474 545 41,000  Level Albuquerque Center
09:40PM 32.9033 -111.5200 100° East 472 543 41,000  Level Albuquerque Center
09:41PM 32.8756 -111.3369 100° East 471 542 41,000  Level Albuquerque Center
09:42PM 32.8531 -111.1822 100° East 475 547 41,000  Level Albuquerque Center
09:43PM 32.8317 -111.0289 99° East 474 545 41,000  Level Albuquerque Center
09:44PM 32.8083 -110.8747 100° East 477 549 41,000  Level Albuquerque Center
09:45PM 32.7839 -110.7206 101° East 477 549 41,000  Level Albuquerque Center
09:46PM 32.7628 -110.5733 100° East 478 550 41,000 -360 Level Albuquerque Center
09:47PM 32.7356 -110.3886 100° East 478 550 40,300 -840 Descending Albuquerque Center
09:48PM 32.7117 -110.2333 100° East 483 556 39,400 -660 Descending Albuquerque Center
09:49PM 32.6858 -110.0758 101° East 488 562 39,000 -240 Descending Albuquerque Center
09:50PM 32.6622 -109.9203 100° East 486 559 39,000 -300 Level Albuquerque Center
09:51PM 32.6372 -109.7647 101° East 486 559 38,500 -780 Descending Albuquerque Center
09:52PM 32.6111 -109.6072 101° East 494 568 37,500 -960 Descending Albuquerque Center
09:53PM 32.5856 -109.4517 101° East 490 564 36,600 -1,080 Descending Albuquerque Center
09:54PM 32.5561 -109.2672 101° East 485 558 35,400 -1,080 Descending Albuquerque Center
09:55PM 32.5311 -109.1122 101° East 485 558 34,500 -960 Descending Albuquerque Center
09:56PM 32.5042 -108.9539 101° East 492 566 33,500 -780 Descending Albuquerque Center
09:58PM 32.4786 -108.8028 101° East 482 555 33,000 -300 Descending Albuquerque Center
09:59PM 32.4550 -108.6572 101° East 464 534 33,000  Level Albuquerque Center
10:00PM 32.4258 -108.4833 101° East 456 525 33,000  Level Albuquerque Center
10:01PM 32.4047 -108.3569 101° East 455 524 33,000  Level Albuquerque Center
10:02PM 32.3747 -108.1800 101° East 457 526 33,000 -360 Level Albuquerque Center
10:03PM 32.3497 -108.0331 101° East 458 527 32,300 -1,680 Descending Albuquerque Center
10:04PM 32.3231 -107.8836 102° East 463 533 29,700 -2,400 Descending Albuquerque Center
10:05PM 32.2986 -107.7364 101° East 462 532 27,400 -2,280 Descending Albuquerque Center
10:06PM 32.2728 -107.5944 102° East 451 519 25,100 -2,340 Descending Albuquerque Center
10:07PM 32.2378 -107.4475 106° East 435 501 22,700 -2,220 Descending Albuquerque Center
10:08PM 32.2056 -107.3189 106° East 419 482 20,700 -1,860 Descending Albuquerque Center
10:09PM 32.1814 -107.2058 104° East 396 456 19,000 -1,860 Descending Albuquerque Center
10:10PM 32.1472 -107.0633 106° East 383 441 17,000 -2,040 Descending Albuquerque Center
10:11PM 32.1192 -106.9472 106° East 374 430 14,900 -1,980 Descending Albuquerque Center
10:12PM 32.0931 -106.8369 106° East 355 409 13,000 -1,920 Descending Albuquerque Center
10:13PM 32.0647 -106.7317 108° East 345 397 11,100 -1,560 Descending Albuquerque Center
10:14PM 31.9764 -106.6883 157° South 342 394 9,900 -1,320 Descending Albuquerque Center
10:15PM 31.8956 -106.6567 162° South 309 356 8,500 -1,020 Descending Albuquerque Center
10:16PM 31.8292 -106.6214 156° South 265 305 7,900 -840 Descending Albuquerque Center
10:17PM 31.8008 -106.5547 117° Southeast 217 250 6,800 -1,080 Descending Albuquerque Center
10:18PM 31.7769 -106.4967 116° Southeast 176 203 5,800 -900 Descending Albuquerque Center
10:19PM 31.7672 -106.4564 106° East 129 148 5,000 -660 Descending Albuquerque Center
10:20PM 31.7825 -106.4228 62° Northeast 125 144 4,500 -540 Descending Albuquerque Center
10:21PM 31.8100 -106.3867 48° Northeast 135 155 3,900 -600 Descending Albuquerque Center
10:23PM 31.8072 -106.3764 90° East  Level Estimated
10:30PM 31.8072 -106.3764 90° East  Level Estimated
10:31PM 31.8072 -106.3764 90° East  Level Estimated
10:32PM 31.8072 -106.3764 90° East  Level Estimated
10:33PM 31.8072 -106.3764 90° East  Level Estimated